Apalachia Observed Data For Previous 48 Hours

Caption
Day and Hour Reservoir Elevation (behind dam)* Tailwater Elevation (below dam)* Average Hourly Discharge*
10/17/2017 2 AM EDT 1,277.61 839.49 1,483
10/17/2017 3 AM EDT 1,277.27 839.50 1,481
10/17/2017 4 AM EDT 1,276.77 839.50 1,482
10/17/2017 5 AM EDT 1,276.31 839.48 1,479
10/17/2017 6 AM EDT 1,275.93 839.48 1,480
10/17/2017 7 AM EDT 1,276.02 839.49 1,480
10/17/2017 8 AM EDT 1,276.40 839.48 1,484
10/17/2017 9 AM EDT 1,276.70 839.48 1,479
10/17/2017 10 AM EDT 1,277.45 839.48 1,484
10/17/2017 11 AM EDT 1,277.38 839.50 1,486
10/17/2017 12 PM EDT 1,277.24 839.47 1,483
10/17/2017 1 PM EDT 1,277.19 839.49 1,486
10/17/2017 2 PM EDT 1,276.99 839.48 1,480
10/17/2017 3 PM EDT 1,276.97 839.46 1,479
10/17/2017 4 PM EDT 1,276.84 839.46 1,480
10/17/2017 5 PM EDT 1,276.59 839.46 1,483
10/17/2017 6 PM EDT 1,276.55 839.46 1,481
10/17/2017 7 PM EDT 1,276.49 839.42 1,480
10/17/2017 8 PM EDT 1,276.83 839.44 1,478
10/17/2017 9 PM EDT 1,277.29 839.45 1,482
10/17/2017 10 PM EDT 1,277.96 839.47 1,481
10/17/2017 11 PM EDT 1,277.98 839.44 1,485
10/18/2017 12 AM EDT 1,277.80 839.46 1,482
10/18/2017 1 AM EDT 1,277.53 839.46 1,487
10/18/2017 2 AM EDT 1,277.49 839.44 1,491
10/18/2017 3 AM EDT 1,277.32 837.62 99
10/18/2017 4 AM EDT 1,276.79 837.62 55
10/18/2017 5 AM EDT 1,276.49 837.61 55
10/18/2017 6 AM EDT 1,276.19 839.47 1,085
10/18/2017 7 AM EDT 1,276.29 839.45 1,477
10/18/2017 8 AM EDT 1,276.23 839.44 1,477
10/18/2017 9 AM EDT 1,276.67 839.43 1,483
10/18/2017 10 AM EDT 1,277.20 839.44 1,489
10/18/2017 11 AM EDT 1,277.57 839.44 1,479
10/18/2017 12 PM EDT 1,277.69 839.44 1,485
10/18/2017 1 PM EDT 1,277.52 839.43 1,482
10/18/2017 2 PM EDT 1,277.48 839.44 1,481
10/18/2017 3 PM EDT 1,277.36 839.45 1,481
10/18/2017 4 PM EDT 1,277.23 839.43 1,487
10/18/2017 5 PM EDT 1,277.11 839.45 1,481
10/18/2017 6 PM EDT 1,277.04 839.43 1,482
10/18/2017 7 PM EDT 1,277.12 839.43 1,487
10/18/2017 8 PM EDT 1,277.33 839.43 1,479
10/18/2017 9 PM EDT 1,277.56 839.44 1,482
10/18/2017 10 PM EDT 1,277.70 839.43 1,480
10/18/2017 11 PM EDT 1,277.63 839.44 1,479
10/19/2017 12 AM EDT 1,277.60 839.44 1,479
10/19/2017 1 AM EDT 1,277.38 839.43 1,483
10/19/2017 2 AM EDT 1,276.96 839.44 1,482
10/19/2017 3 AM EDT 1,276.46 839.44 1,484
10/19/2017 4 AM EDT 1,276.10 839.44 1,482
10/19/2017 5 AM EDT 1,275.65 839.45 1,484
10/19/2017 6 AM EDT 1,275.28 839.44 1,478
10/19/2017 7 AM EDT 1,275.26 839.45 1,484
10/19/2017 8 AM EDT 1,275.42 839.44 1,488
10/19/2017 9 AM EDT 1,275.48 839.43 1,486
10/19/2017 10 AM EDT 1,275.71 839.45 1,489
10/19/2017 11 AM EDT 1,275.69 839.44 1,491
10/19/2017 12 PM EDT 1,275.65 839.42 1,490
10/19/2017 1 PM EDT 1,275.34 839.44 1,488
10/19/2017 2 PM EDT 1,275.29 839.44 1,485
10/19/2017 3 PM EDT 1,275.22 839.44 1,492
10/19/2017 4 PM EDT 1,275.10 839.63 1,548
10/19/2017 5 PM EDT 1,275.09 840.33 2,882
10/19/2017 6 PM EDT 1,275.42 840.31 2,887
10/19/2017 7 PM EDT 1,275.90 840.32 2,880
10/19/2017 8 PM EDT 1,276.26 840.33 2,888
10/19/2017 9 PM EDT 1,276.40 840.33 2,881
10/19/2017 10 PM EDT 1,276.49 840.30 2,888
10/19/2017 11 PM EDT 1,276.51 840.29 2,881

Elevations are in feet above sea level. Discharges are in cubic feet per second and are reported at the end of the hour.